Lincoln, NE

6:12 PM CST on March 04, 2015 (GMT -0600)
Lincoln Municipal | Change Station
CLOSE
Current Station
Airport
Location: Lincoln,
Elevation: 1188 ft
Nearby Weather Stations

Elev 1188 ft 40.85 °N, 96.76 °W | Updated 18 minutes ago

Clear
Clear
26 °F
Feels Like 14 °F
N
15
Wind Variable Wind from NNW

Today
High -- | Low -- °F
--% Chance of Precip.
Yesterday
High -- | Low -- °F
Precip. -- in
6:56 AM 6:21 PM
Waxing Gibbous, 99% visible
Pressure 30.39 in
Visibility 10.0 miles
Clouds Clear
Windchill 14 °F
Dew Point -3 °F
Humidity 28%
Rainfall 0.03 in
Snow Depth Not available.
UV 0 out of 12
Pollen 1.40 out of 12
Air Quality Not available.
Flu Activity Regional
METAR KLNK 042354Z 34013KT 10SM CLR M03/M19 A3034 RMK AO2 SLP291 T10331194 10000 21033 53016

More Conditions Fewer Conditions

Pressure 30.39 in
Visibility 10.0 miles
Clouds Clear
Windchill 14 °F
Dew Point -3 °F
Humidity 28%
Rainfall 0.03 in
Snow Depth Not available.
UV 0 out of 12
Pollen 1.40 out of 12
Air Quality Not available.
Flu Activity Regional
METAR KLNK 042354Z 34013KT 10SM CLR M03/M19 A3034 RMK AO2 SLP291 T10331194 10000 21033 53016

More Conditions Fewer Conditions

10-Day Weather Forecast

Almanac

Astronomy

Mar. 04, 2015 Rise Set
Actual Time 6:56 AM CST 6:21 PM CST
Civil Twilight 6:29 AM CST 6:48 PM CST
Nautical Twilight 5:57 AM CST 7:20 PM CST
Astronomical Twilight 5:25 AM CST 7:52 PM CST
Moon 5:40 PM CST (3/4) 6:11 AM CST (3/4)
Length of Visible Light 12h 19m
Length of Day
11h 24m
Tomorrow will be 2m 42s longer.
Waxing Gibbous, 99% of the Moon is Illuminated
Today
Waxing Gibbous
Mar 5
Full
Mar 13
Last Quarter
Mar 20
New
Mar 27
First Quarter

Today's Extremes

State Highs State Lows

Community

WunderPhotos

Upload Photos

1,802,601 photos uploaded!

Nearby

Snow Depth

Station Depth Elevation
No new snow has been reported.

Earthquake Activity

City Distance Mag. Time & Date
No recent earthquake activity has been reported nearby.
Minimum magnitude displayed is 2.5.

Coastal Water Temperatures

Place Temperature
No Stations Reporting

Nearby Weather Stations